Time;durP1;ratioP1;P1;durP2;ratioP2;P2;SDS_P1;SDS_P2;PMS_P1;PMS_P2;Temp;Humidity;BMP_temperature;BMP_pressure;BME280_temperature;BME280_humidity;BME280_pressure;Samples;Min_cycle;Max_cycle;Signal;HPM_P1;HPM_P2
2021/11/18 00:01:26;;;;;;;17.42;2.60;;;7.20;99.10;;;;;;4989125;28;20057;-85
2021/11/18 00:03:53;;;;;;;16.92;2.92;;;7.20;99.10;;;;;;4994035;28;21825;-86
2021/11/18 00:06:19;;;;;;;19.05;3.13;;;7.30;99.20;;;;;;4995277;28;20045;-86
2021/11/18 00:08:45;;;;;;;16.65;2.85;;;7.30;99.20;;;;;;4995151;28;20049;-87
2021/11/18 00:11:15;;;;;;;15.20;2.50;;;7.30;99.20;;;;;;4995175;28;20092;-85
2021/11/18 00:13:44;;;;;;;19.77;3.22;;;7.30;99.10;;;;;;4995884;28;20042;-86
2021/11/18 00:16:10;;;;;;;18.17;3.33;;;7.30;99.20;;;;;;4994962;28;20049;-86
2021/11/18 00:18:37;;;;;;;16.17;2.70;;;7.30;99.20;;;;;;4995702;28;20116;-85
2021/11/18 00:21:07;;;;;;;19.73;2.60;;;7.30;99.20;;;;;;4995451;28;20045;-86
2021/11/18 00:23:40;;;;;;;13.35;2.20;;;7.30;99.20;;;;;;4994837;28;20042;-85
2021/11/18 00:26:06;;;;;;;21.23;3.38;;;7.30;99.20;;;;;;4995212;28;20128;-86
2021/11/18 00:28:33;;;;;;;14.10;2.70;;;7.30;99.30;;;;;;4994908;28;20454;-86
2021/11/18 00:30:59;;;;;;;14.43;2.88;;;7.30;99.30;;;;;;4994680;28;20052;-86
2021/11/18 00:33:25;;;;;;;12.52;2.50;;;7.30;99.30;;;;;;4995140;28;20073;-85
2021/11/18 00:35:52;;;;;;;16.88;2.97;;;7.30;99.20;;;;;;4995155;28;20046;-85
2021/11/18 00:38:19;;;;;;;17.88;3.00;;;7.30;99.20;;;;;;4994970;28;20045;-86
2021/11/18 00:40:46;;;;;;;12.02;2.70;;;7.30;99.20;;;;;;4995101;28;20049;-86
2021/11/18 00:43:13;;;;;;;22.15;3.40;;;7.30;99.30;;;;;;4994430;28;20375;-86
2021/11/18 00:45:39;;;;;;;15.32;2.78;;;7.40;99.40;;;;;;4995102;28;20148;-85
2021/11/18 00:48:07;;;;;;;16.90;2.85;;;7.40;99.30;;;;;;4994836;28;20137;-86
2021/11/18 00:50:41;;;;;;;14.75;2.45;;;7.30;99.30;;;;;;4994436;28;20500;-84
2021/11/18 00:53:07;;;;;;;14.45;2.60;;;7.40;99.20;;;;;;4994787;28;20046;-85
2021/11/18 00:55:33;;;;;;;13.73;2.78;;;7.40;99.20;;;;;;4995162;28;20048;-84
2021/11/18 00:57:59;;;;;;;18.98;3.08;;;7.40;99.20;;;;;;4994095;28;20054;-85
2021/11/18 01:00:28;;;;;;;15.10;2.70;;;7.40;99.30;;;;;;4994605;28;20080;-85
2021/11/18 01:02:55;;;;;;;22.10;3.90;;;7.40;99.40;;;;;;4998133;28;20053;-85
2021/11/18 01:05:25;;;;;;;20.65;3.30;;;7.50;99.50;;;;;;4997266;28;20034;-85
2021/11/18 01:07:52;;;;;;;17.30;3.20;;;7.50;99.50;;;;;;4979748;28;20046;-85
2021/11/18 01:10:19;;;;;;;24.55;3.67;;;7.50;99.50;;;;;;4984203;28;20507;-85
2021/11/18 01:12:45;;;;;;;14.43;2.78;;;7.50;99.50;;;;;;4998364;28;20140;-85
2021/11/18 01:15:14;;;;;;;13.73;2.70;;;7.50;99.50;;;;;;4998285;28;20065;-85
2021/11/18 01:17:39;;;;;;;22.23;3.67;;;7.50;99.50;;;;;;4998864;28;20132;-85
2021/11/18 01:20:07;;;;;;;20.70;3.72;;;7.50;99.60;;;;;;4997829;28;20188;-85
2021/11/18 01:22:33;;;;;;;19.63;3.33;;;7.50;99.60;;;;;;4998932;28;20042;-85
2021/11/18 01:25:00;;;;;;;28.02;3.75;;;7.50;99.60;;;;;;4998084;28;20045;-85
2021/11/18 01:27:26;;;;;;;20.23;3.30;;;7.50;99.60;;;;;;4998564;28;20041;-85
2021/11/18 01:29:52;;;;;;;18.25;3.33;;;7.50;99.60;;;;;;4998569;28;20056;-85
2021/11/18 01:32:18;;;;;;;21.35;3.38;;;7.50;99.60;;;;;;4997634;28;20041;-85
2021/11/18 01:34:43;;;;;;;21.35;3.35;;;7.50;99.50;;;;;;4998697;28;20048;-85
2021/11/18 01:37:09;;;;;;;20.27;3.20;;;7.50;99.60;;;;;;4998482;28;20473;-85
2021/11/18 01:39:35;;;;;;;16.92;3.80;;;7.50;99.60;;;;;;4997928;28;20056;-86
2021/11/18 01:42:00;;;;;;;21.05;3.50;;;7.60;99.70;;;;;;4998288;28;20121;-85
2021/11/18 01:44:40;;;;;;;24.92;3.80;;;7.60;99.80;;;;;;4998999;28;20453;-85
2021/11/18 01:47:08;;;;;;;22.05;3.92;;;7.60;99.90;;;;;;4997871;28;20486;-85
2021/11/18 01:49:34;;;;;;;20.10;3.42;;;7.60;99.90;;;;;;4997845;28;20044;-85
2021/11/18 01:52:03;;;;;;;20.63;3.47;;;7.60;99.90;;;;;;4998304;28;20148;-85
2021/11/18 01:54:33;;;;;;;19.63;4.20;;;7.60;99.90;;;;;;4997555;28;20121;-85
2021/11/18 01:57:01;;;;;;;20.85;3.90;;;7.70;99.90;;;;;;4997789;28;20092;-85
2021/11/18 01:59:31;;;;;;;18.38;3.40;;;7.70;99.90;;;;;;4998146;28;20058;-85
2021/11/18 02:02:03;;;;;;;25.27;4.50;;;7.70;99.80;;;;;;4998358;28;20405;-86
2021/11/18 02:04:30;;;;;;;21.88;4.07;;;7.60;99.80;;;;;;4997840;28;20136;-85
2021/11/18 02:07:06;;;;;;;27.98;3.97;;;7.70;99.90;;;;;;4998161;28;20122;-86
2021/11/18 02:09:38;;;;;;;25.40;4.45;;;7.70;99.90;;;;;;4998006;28;20572;-86
2021/11/18 02:12:09;;;;;;;22.10;4.18;;;7.70;99.90;;;;;;4997805;28;20042;-85
2021/11/18 02:14:36;;;;;;;18.13;3.65;;;7.70;99.90;;;;;;4996023;28;20052;-85
2021/11/18 02:17:03;;;;;;;25.05;4.13;;;7.70;99.90;;;;;;4996976;28;20049;-85
2021/11/18 02:19:35;;;;;;;19.40;4.22;;;7.70;99.90;;;;;;4997400;28;20108;-85
2021/11/18 02:22:01;;;;;;;19.88;4.57;;;7.80;99.90;;;;;;4996085;28;20038;-85
2021/11/18 02:24:30;;;;;;;23.55;4.47;;;7.80;99.90;;;;;;5013055;28;20137;-85
2021/11/18 02:26:56;;;;;;;24.73;4.35;;;7.80;99.90;;;;;;4997447;28;20052;-85
2021/11/18 02:29:23;;;;;;;26.63;4.85;;;7.80;99.90;;;;;;4996561;28;20041;-84
2021/11/18 02:32:03;;;;;;;23.50;4.70;;;7.80;99.90;;;;;;4993147;28;20435;-85
2021/11/18 02:34:44;;;;;;;20.35;4.07;;;7.80;99.90;;;;;;4996124;28;20074;-85
2021/11/18 02:37:10;;;;;;;22.98;4.28;;;7.80;99.90;;;;;;4997017;28;20065;-85
2021/11/18 02:39:36;;;;;;;21.73;4.68;;;7.80;99.90;;;;;;4997096;28;20046;-85
2021/11/18 02:42:04;;;;;;;25.73;4.57;;;7.80;99.90;;;;;;4997291;28;20088;-85
2021/11/18 02:44:31;;;;;;;21.50;4.38;;;7.90;99.90;;;;;;4996712;28;20391;-85
2021/11/18 02:46:58;;;;;;;33.13;5.85;;;7.90;99.90;;;;;;4996988;28;20096;-85
2021/11/18 02:49:24;;;;;;;25.00;4.80;;;7.90;99.90;;;;;;4996424;28;20057;-85
2021/11/18 02:52:01;;;;;;;31.15;5.70;;;7.90;99.90;;;;;;4997082;28;20449;-85
2021/11/18 02:54:37;;;;;;;29.02;4.90;;;8.00;99.90;;;;;;4997226;28;20129;-86
2021/11/18 02:57:09;;;;;;;18.58;4.50;;;8.00;99.90;;;;;;4996126;28;20049;-85
2021/11/18 02:59:39;;;;;;;30.60;4.93;;;8.00;99.90;;;;;;4996909;28;20049;-85
2021/11/18 03:02:07;;;;;;;30.05;5.30;;;8.00;99.90;;;;;;4996795;28;20076;-85
2021/11/18 03:04:34;;;;;;;19.42;4.65;;;8.00;99.90;;;;;;4996471;28;20386;-85
2021/11/18 03:07:00;;;;;;;30.70;5.65;;;8.00;99.90;;;;;;4996554;28;20103;-85
2021/11/18 03:09:27;;;;;;;31.35;5.25;;;8.10;99.90;;;;;;4996840;28;20050;-85
2021/11/18 03:11:53;;;;;;;28.23;5.00;;;8.10;99.90;;;;;;5019618;23;20050;-85
2021/11/18 03:14:20;;;;;;;22.23;4.72;;;8.10;99.90;;;;;;5016217;28;20054;-84
2021/11/18 03:16:46;;;;;;;35.63;6.13;;;8.10;99.90;;;;;;5016031;28;20045;-85
2021/11/18 03:19:12;;;;;;;32.00;5.78;;;8.10;99.90;;;;;;5013243;28;20041;-85
2021/11/18 03:21:38;;;;;;;19.70;4.35;;;8.10;99.90;;;;;;4996759;28;20053;-85
2021/11/18 03:24:05;;;;;;;26.70;5.30;;;8.10;99.90;;;;;;4996456;28;20436;-85
2021/11/18 03:26:32;;;;;;;23.83;4.90;;;8.10;99.90;;;;;;4998538;28;20390;-85
2021/11/18 03:28:58;;;;;;;22.27;5.15;;;8.10;99.90;;;;;;5015462;28;20041;-85
2021/11/18 03:31:25;;;;;;;38.75;5.80;;;8.10;99.90;;;;;;5015082;28;20079;-85
2021/11/18 03:34:03;;;;;;;27.00;5.25;;;8.10;99.90;;;;;;5015500;28;20041;-86
2021/11/18 03:36:30;;;;;;;23.83;4.72;;;8.10;99.90;;;;;;5010838;28;20497;-85
2021/11/18 03:38:57;;;;;;;29.13;5.68;;;8.10;99.90;;;;;;5015399;28;20045;-85
2021/11/18 03:41:27;;;;;;;28.63;5.65;;;8.10;99.90;;;;;;5015687;28;20042;-86
2021/11/18 03:43:56;;;;;;;25.27;4.85;;;8.10;99.90;;;;;;5015102;28;20041;-85
2021/11/18 03:46:25;;;;;;;25.70;5.53;;;8.10;99.90;;;;;;5015342;28;20373;-84
2021/11/18 03:48:52;;;;;;;33.63;6.05;;;8.10;99.90;;;;;;5015361;28;20049;-86
2021/11/18 03:51:17;;;;;;;27.95;5.90;;;8.10;99.90;;;;;;5015019;28;20516;-86
2021/11/18 03:53:43;;;;;;;28.30;5.75;;;8.10;99.90;;;;;;5015262;28;20041;-85
2021/11/18 03:56:19;;;;;;;22.88;4.65;;;8.10;99.90;;;;;;5015593;28;20038;-86
2021/11/18 03:58:46;;;;;;;34.38;5.65;;;8.20;99.90;;;;;;5016111;28;20385;-86
2021/11/18 04:01:11;;;;;;;29.00;5.65;;;8.10;99.90;;;;;;5015069;28;20093;-85
2021/11/18 04:03:38;;;;;;;28.17;5.72;;;8.10;99.90;;;;;;5015592;28;20457;-85
2021/11/18 04:06:06;;;;;;;21.67;5.07;;;8.20;99.90;;;;;;5015654;28;20037;-85
2021/11/18 04:08:32;;;;;;;20.95;4.45;;;8.20;99.90;;;;;;5014195;28;20064;-85
2021/11/18 04:10:57;;;;;;;22.15;5.05;;;8.10;99.90;;;;;;5014309;28;20072;-86
2021/11/18 04:13:23;;;;;;;20.30;5.40;;;8.20;99.90;;;;;;5015646;28;20059;-86
2021/11/18 04:15:51;;;;;;;25.08;5.50;;;8.10;99.90;;;;;;5015228;28;20473;-85
2021/11/18 04:18:19;;;;;;;22.77;5.22;;;8.10;99.90;;;;;;5015415;28;20049;-86
2021/11/18 04:20:48;;;;;;;27.30;5.07;;;8.20;99.90;;;;;;5014917;28;20042;-86
2021/11/18 04:23:16;;;;;;;26.13;5.55;;;8.20;99.90;;;;;;5014472;28;20152;-85
2021/11/18 04:25:42;;;;;;;23.20;5.38;;;8.20;99.90;;;;;;5015055;28;20049;-85
2021/11/18 04:28:08;;;;;;;30.27;5.68;;;8.20;99.90;;;;;;5014171;28;20049;-86
2021/11/18 04:30:43;;;;;;;23.17;5.38;;;8.20;99.90;;;;;;5014937;28;20037;-86
2021/11/18 04:33:09;;;;;;;28.45;5.40;;;8.20;99.90;;;;;;5014899;28;20078;-86
2021/11/18 04:35:35;;;;;;;21.77;4.97;;;8.20;99.90;;;;;;5014742;28;20041;-86
2021/11/18 04:38:01;;;;;;;29.77;5.72;;;8.20;99.90;;;;;;5013954;28;20137;-85
2021/11/18 04:40:26;;;;;;;33.63;5.40;;;8.20;99.90;;;;;;5013715;28;20120;-85
2021/11/18 04:42:52;;;;;;;22.80;5.13;;;8.30;99.90;;;;;;5010283;28;20417;-85
2021/11/18 04:45:21;;;;;;;35.05;5.60;;;8.20;99.90;;;;;;5014226;28;20095;-86
2021/11/18 04:47:49;;;;;;;29.00;5.60;;;8.30;99.90;;;;;;5014607;28;20045;-85
2021/11/18 04:50:15;;;;;;;33.80;5.30;;;8.30;99.90;;;;;;5013187;28;20048;-86
2021/11/18 04:52:42;;;;;;;34.30;6.40;;;8.30;99.90;;;;;;5014971;28;20455;-85
2021/11/18 04:55:10;;;;;;;31.38;5.15;;;8.30;99.90;;;;;;5014298;28;20120;-86
2021/11/18 04:57:35;;;;;;;28.08;5.07;;;8.30;99.90;;;;;;5014614;28;20102;-86
2021/11/18 05:00:10;;;;;;;22.13;5.07;;;8.30;99.90;;;;;;5014685;28;20049;-86
2021/11/18 05:02:35;;;;;;;30.30;5.45;;;8.30;99.90;;;;;;4995473;28;20049;-86
2021/11/18 05:05:02;;;;;;;28.75;5.03;;;8.30;99.90;;;;;;4994416;28;20049;-85
2021/11/18 05:07:28;;;;;;;32.88;5.68;;;8.30;99.90;;;;;;5002632;28;20049;-86
2021/11/18 05:09:54;;;;;;;21.83;4.63;;;8.30;99.90;;;;;;5014116;28;20504;-86
2021/11/18 05:12:19;;;;;;;24.58;4.82;;;8.30;99.90;;;;;;5013411;28;20049;-86
2021/11/18 05:14:45;;;;;;;29.80;5.40;;;8.40;99.90;;;;;;4995760;28;20045;-86
2021/11/18 05:17:11;;;;;;;27.50;5.13;;;8.40;99.90;;;;;;4995143;28;20048;-86
2021/11/18 05:19:36;;;;;;;33.35;5.18;;;8.40;99.90;;;;;;4994759;28;20034;-86
2021/11/18 05:22:03;;;;;;;24.85;4.72;;;8.40;99.90;;;;;;4994719;28;20120;-85
2021/11/18 05:24:29;;;;;;;29.55;5.35;;;8.40;99.90;;;;;;4994545;28;20053;-86
2021/11/18 05:26:54;;;;;;;24.60;4.50;;;8.40;99.90;;;;;;4995519;28;20050;-85
2021/11/18 05:29:20;;;;;;;26.60;5.15;;;8.40;99.90;;;;;;4994348;28;20042;-86
2021/11/18 05:31:46;;;;;;;27.85;4.63;;;8.40;99.90;;;;;;4994669;28;20378;-85
2021/11/18 05:34:11;;;;;;;27.85;5.15;;;8.50;99.90;;;;;;4994706;28;20046;-86
2021/11/18 05:36:38;;;;;;;34.58;5.10;;;8.50;99.90;;;;;;5013702;28;20069;-86
2021/11/18 05:39:05;;;;;;;26.88;5.00;;;8.40;99.90;;;;;;5013792;28;20075;-86
2021/11/18 05:41:31;;;;;;;29.20;4.80;;;8.50;99.90;;;;;;5014072;28;20405;-86
2021/11/18 05:44:02;;;;;;;22.13;4.72;;;8.50;99.90;;;;;;5014346;28;20371;-86
2021/11/18 05:46:28;;;;;;;23.75;4.10;;;8.50;99.90;;;;;;5013868;28;20045;-86
2021/11/18 05:48:53;;;;;;;24.13;4.53;;;8.50;99.90;;;;;;5016977;28;20049;-86
2021/11/18 05:51:19;;;;;;;29.65;5.35;;;8.50;99.90;;;;;;5050755;28;20136;-84
2021/11/18 05:53:46;;;;;;;23.45;4.80;;;8.50;99.90;;;;;;5017305;28;20041;-86
2021/11/18 05:56:15;;;;;;;23.00;4.57;;;8.50;99.90;;;;;;5017177;28;20049;-86
2021/11/18 05:58:42;;;;;;;29.88;4.60;;;8.50;99.90;;;;;;5017266;28;20056;-86
2021/11/18 06:01:09;;;;;;;32.00;5.25;;;8.50;99.90;;;;;;5016529;28;20096;-85
2021/11/18 06:03:35;;;;;;;26.42;5.30;;;8.50;99.90;;;;;;5016411;28;20045;-85
2021/11/18 06:06:01;;;;;;;22.88;4.55;;;8.50;99.90;;;;;;5016118;28;20045;-86
2021/11/18 06:08:27;;;;;;;24.52;5.22;;;8.50;99.90;;;;;;5011605;28;20044;-86
2021/11/18 06:10:53;;;;;;;26.48;5.45;;;8.50;99.90;;;;;;5015627;28;20485;-86
2021/11/18 06:13:19;;;;;;;29.63;5.57;;;8.50;99.90;;;;;;5018533;28;20037;-86
2021/11/18 06:15:45;;;;;;;24.88;5.05;;;8.50;99.90;;;;;;5028300;28;20049;-85
2021/11/18 06:18:11;;;;;;;25.90;5.22;;;8.50;99.90;;;;;;5023291;28;20122;-86
2021/11/18 06:20:38;;;;;;;32.30;5.57;;;8.50;99.90;;;;;;5026226;28;20037;-86
2021/11/18 06:23:06;;;;;;;26.75;5.25;;;8.50;99.90;;;;;;5017145;28;20053;-86
2021/11/18 06:25:33;;;;;;;25.85;4.95;;;8.50;99.90;;;;;;5021722;28;20057;-86
2021/11/18 06:27:59;;;;;;;26.25;4.40;;;8.50;99.90;;;;;;5031437;28;20037;-86
2021/11/18 06:30:30;;;;;;;24.13;4.80;;;8.50;99.90;;;;;;5018973;28;20503;-83
2021/11/18 06:32:56;;;;;;;28.85;4.72;;;8.50;99.90;;;;;;5033375;28;20041;-83
2021/11/18 06:35:25;;;;;;;23.27;4.25;;;8.50;99.90;;;;;;5015601;28;20144;-87
2021/11/18 06:37:58;;;;;;;31.83;5.50;;;8.50;99.90;;;;;;5011157;28;20053;-86
2021/11/18 06:40:24;;;;;;;23.38;4.75;;;8.50;99.90;;;;;;5024244;28;20037;-86
2021/11/18 06:43:02;;;;;;;25.33;5.70;;;8.50;99.90;;;;;;5022622;28;20068;-86
2021/11/18 06:45:37;;;;;;;28.00;5.15;;;8.50;99.90;;;;;;5030777;28;20053;-87
2021/11/18 06:48:13;;;;;;;27.30;5.13;;;8.50;99.90;;;;;;5020146;28;20564;-85
2021/11/18 06:50:39;;;;;;;25.85;5.20;;;8.50;99.90;;;;;;5014757;28;20165;-83
2021/11/18 06:53:05;;;;;;;20.60;4.78;;;8.50;99.90;;;;;;5014781;28;20099;-83
2021/11/18 06:55:31;;;;;;;27.70;4.88;;;8.50;99.90;;;;;;5019304;28;20044;-83
2021/11/18 06:57:56;;;;;;;24.42;4.97;;;8.50;99.90;;;;;;5024862;28;20065;-84
2021/11/18 07:00:22;;;;;;;27.00;5.00;;;8.50;99.90;;;;;;5023028;28;20045;-84
2021/11/18 07:02:48;;;;;;;24.95;4.38;;;8.50;99.90;;;;;;5024554;28;20049;-84
2021/11/18 07:05:14;;;;;;;27.75;5.32;;;8.50;99.90;;;;;;5015695;28;20044;-84
2021/11/18 07:07:40;;;;;;;27.80;5.00;;;8.50;99.90;;;;;;5020234;28;20396;-84
2021/11/18 07:10:08;;;;;;;28.50;5.03;;;8.50;99.90;;;;;;5012844;28;20045;-84
2021/11/18 07:12:34;;;;;;;29.48;5.10;;;8.50;99.90;;;;;;5025407;28;20052;-84
2021/11/18 07:14:59;;;;;;;30.08;5.30;;;8.50;99.90;;;;;;5022247;28;20042;-84
2021/11/18 07:17:26;;;;;;;26.27;4.93;;;8.50;99.90;;;;;;5007018;28;20049;-84
2021/11/18 07:19:52;;;;;;;22.75;4.57;;;8.50;99.90;;;;;;5016258;28;20049;-84
2021/11/18 07:22:19;;;;;;;23.73;4.63;;;8.50;99.90;;;;;;5026758;28;20041;-84
2021/11/18 07:24:44;;;;;;;23.63;4.80;;;8.50;99.90;;;;;;5024033;28;20052;-85
2021/11/18 07:27:10;;;;;;;25.83;4.38;;;8.50;99.90;;;;;;5015036;28;20400;-85
2021/11/18 07:29:36;;;;;;;26.02;4.30;;;8.50;99.90;;;;;;5014253;28;20048;-84
2021/11/18 07:32:03;;;;;;;31.42;5.30;;;8.50;99.90;;;;;;5018123;28;20052;-84
2021/11/18 07:34:29;;;;;;;28.45;5.03;;;8.50;99.90;;;;;;5015659;28;20045;-83
2021/11/18 07:36:55;;;;;;;25.27;5.30;;;8.50;99.90;;;;;;5019321;28;20042;-83
2021/11/18 07:39:24;;;;;;;27.75;5.22;;;8.50;99.90;;;;;;5018101;28;20132;-83
2021/11/18 07:41:52;;;;;;;24.48;5.45;;;8.50;99.90;;;;;;5014771;28;20041;-83
2021/11/18 07:44:17;;;;;;;28.73;5.45;;;8.50;99.90;;;;;;5027278;28;20053;-84
2021/11/18 07:46:43;;;;;;;20.70;4.03;;;8.50;99.90;;;;;;5017314;28;20045;-82
2021/11/18 07:49:09;;;;;;;23.10;4.55;;;8.50;99.90;;;;;;5018270;28;20041;-83
2021/11/18 07:51:37;;;;;;;20.88;4.82;;;8.50;99.90;;;;;;5031424;28;20045;-83
2021/11/18 07:54:04;;;;;;;21.73;4.00;;;8.50;99.90;;;;;;5018415;28;20124;-83
2021/11/18 07:56:31;;;;;;;28.30;4.70;;;8.50;99.90;;;;;;5024112;28;20029;-83
2021/11/18 07:58:57;;;;;;;25.38;4.82;;;8.50;99.80;;;;;;5021244;28;20038;-84
2021/11/18 08:01:23;;;;;;;26.80;4.63;;;8.50;99.80;;;;;;5010994;28;20064;-83
2021/11/18 08:03:49;;;;;;;22.38;4.65;;;8.50;99.80;;;;;;5019452;28;20037;-84
2021/11/18 08:06:19;;;;;;;22.60;4.93;;;8.50;99.80;;;;;;5021255;28;20041;-83
2021/11/18 08:08:47;;;;;;;22.73;4.22;;;8.50;99.80;;;;;;5023349;28;20440;-83
2021/11/18 08:11:15;;;;;;;22.00;4.88;;;8.50;99.90;;;;;;5027627;28;20057;-83
2021/11/18 08:13:41;;;;;;;24.02;5.07;;;8.50;99.80;;;;;;5026538;28;20371;-82
2021/11/18 08:16:07;;;;;;;25.45;4.82;;;8.50;99.80;;;;;;5020365;28;20032;-83
2021/11/18 08:18:33;;;;;;;21.05;4.53;;;8.60;99.90;;;;;;5025097;28;20052;-83
2021/11/18 08:20:58;;;;;;;26.30;4.18;;;8.50;99.80;;;;;;5026650;28;20047;-83
2021/11/18 08:23:24;;;;;;;23.25;4.28;;;8.50;99.80;;;;;;5017556;28;20033;-84
2021/11/18 08:25:50;;;;;;;18.77;4.50;;;8.60;99.80;;;;;;5011139;28;20041;-84
2021/11/18 08:28:15;;;;;;;23.58;4.35;;;8.60;99.70;;;;;;5008658;28;20038;-83
2021/11/18 08:30:42;;;;;;;21.10;4.32;;;8.60;99.70;;;;;;5010235;28;20497;-82
2021/11/18 08:33:11;;;;;;;15.68;3.65;;;8.60;99.70;;;;;;5006582;28;20042;-82
2021/11/18 08:35:37;;;;;;;23.05;4.03;;;8.60;99.70;;;;;;5012868;28;20396;-82
2021/11/18 08:38:05;;;;;;;24.80;4.75;;;8.60;99.70;;;;;;5019781;28;20041;-82
2021/11/18 08:40:32;;;;;;;21.08;4.25;;;8.60;99.70;;;;;;5013272;28;20053;-82
2021/11/18 08:42:58;;;;;;;20.33;4.47;;;8.70;99.70;;;;;;5026516;28;20037;-83
2021/11/18 08:45:24;;;;;;;23.55;3.83;;;8.70;99.70;;;;;;5017847;28;20087;-83
2021/11/18 08:47:50;;;;;;;24.33;4.07;;;8.70;99.70;;;;;;5001868;28;20037;-83
2021/11/18 08:50:20;;;;;;;27.13;4.30;;;8.70;99.70;;;;;;5026167;28;20463;-82
2021/11/18 08:52:47;;;;;;;22.85;4.30;;;8.80;99.70;;;;;;5025551;28;20045;-82
2021/11/18 08:55:17;;;;;;;20.02;3.70;;;8.80;99.70;;;;;;5018278;28;20488;-82
2021/11/18 08:57:44;;;;;;;23.25;4.07;;;8.80;99.70;;;;;;5026485;28;20396;-82
2021/11/18 09:00:28;;;;;;;25.35;3.97;;;8.80;99.60;;;;;;5027186;28;20037;-83
2021/11/18 09:02:55;;;;;;;20.60;4.38;;;8.80;99.60;;;;;;5026150;28;20049;-82
2021/11/18 09:05:23;;;;;;;20.02;3.65;;;8.90;99.60;;;;;;5015847;28;20053;-82
2021/11/18 09:07:49;;;;;;;23.85;4.57;;;8.90;99.60;;;;;;5028402;28;20080;-82
2021/11/18 09:10:14;;;;;;;23.27;4.55;;;8.90;99.50;;;;;;5018047;28;20088;-82
2021/11/18 09:12:45;;;;;;;19.52;4.32;;;8.90;99.50;;;;;;5024000;28;20053;-82
2021/11/18 09:15:14;;;;;;;24.73;4.65;;;8.90;99.50;;;;;;5017589;28;20172;-82
2021/11/18 09:17:43;;;;;;;19.75;4.25;;;9.00;99.50;;;;;;5002053;28;20095;-82
2021/11/18 09:20:12;;;;;;;23.17;4.32;;;9.00;99.50;;;;;;5010862;28;20493;-83
2021/11/18 09:22:38;;;;;;;22.92;4.00;;;9.00;99.40;;;;;;5025043;28;20045;-82
2021/11/18 09:25:09;;;;;;;25.10;4.05;;;9.00;99.40;;;;;;5018818;28;20053;-83
2021/11/18 09:27:44;;;;;;;23.33;4.45;;;9.10;99.40;;;;;;5018167;28;20104;-82
2021/11/18 09:30:25;;;;;;;21.75;4.05;;;9.10;99.30;;;;;;5023017;28;20041;-83
2021/11/18 09:32:51;;;;;;;27.60;4.75;;;9.10;99.30;;;;;;5021657;28;20045;-83
2021/11/18 09:35:21;;;;;;;25.10;4.15;;;9.10;99.30;;;;;;5021854;28;20061;-82
2021/11/18 09:37:47;;;;;;;23.90;3.90;;;9.20;99.30;;;;;;5021509;28;20496;-82
2021/11/18 09:40:19;;;;;;;18.27;3.90;;;9.20;99.30;;;;;;5025488;28;20068;-82
2021/11/18 09:43:06;;;;;;;31.45;4.15;;;9.20;99.20;;;;;;5029497;28;20124;-82
2021/11/18 09:45:38;;;;;;;26.38;4.72;;;9.20;99.10;;;;;;5016489;28;20463;-83
2021/11/18 09:48:23;;;;;;;22.08;4.03;;;9.30;99.20;;;;;;5031862;28;20037;-82
2021/11/18 09:50:58;;;;;;;20.05;3.95;;;9.40;99.10;;;;;;5026563;28;20400;-84
2021/11/18 09:53:45;;;;;;;29.15;4.65;;;9.40;99.00;;;;;;5012991;28;20064;-83
2021/11/18 09:56:26;;;;;;;22.13;4.35;;;9.50;98.90;;;;;;5020411;28;20041;-82
2021/11/18 09:59:13;;;;;;;26.90;4.40;;;9.50;99.00;;;;;;5010548;28;20049;-82
2021/11/18 10:02:14;;;;;;;26.10;4.28;;;9.60;98.90;;;;;;5020681;28;20512;-82
2021/11/18 10:04:51;;;;;;;27.17;4.00;;;9.60;98.90;;;;;;5024842;28;20049;-82
2021/11/18 10:07:52;;;;;;;23.10;4.22;;;9.70;98.90;;;;;;5024840;28;20051;-82
2021/11/18 10:10:30;;;;;;;21.15;3.55;;;9.70;98.70;;;;;;5020031;28;20052;-82
2021/11/18 10:13:17;;;;;;;23.52;5.05;;;9.80;98.80;;;;;;5015253;28;20065;-82
2021/11/18 10:15:49;;;;;;;24.83;4.25;;;9.90;98.70;;;;;;5014532;28;20056;-81
2021/11/18 10:18:19;;;;;;;27.65;4.22;;;9.90;98.60;;;;;;5023074;28;20045;-82
2021/11/18 10:20:48;;;;;;;25.00;4.78;;;10.00;98.50;;;;;;5040135;28;20508;-82
2021/11/18 10:23:20;;;;;;;26.63;4.32;;;10.00;98.50;;;;;;5024826;28;20042;-82
2021/11/18 10:25:53;;;;;;;28.35;4.60;;;10.10;98.40;;;;;;5011390;28;20048;-82
2021/11/18 10:28:19;;;;;;;;;;;10.10;98.30;;;;;;5007306;28;20038;-82
2021/11/18 10:31:08;;;;;;;23.33;3.88;;;10.10;98.20;;;;;;5028922;28;19928;-81
2021/11/18 10:33:54;;;;;;;23.98;4.68;;;10.20;98.30;;;;;;5019975;28;20053;-81
2021/11/18 10:36:52;;;;;;;29.75;5.25;;;10.20;98.20;;;;;;5012446;28;20068;-83
2021/11/18 10:39:38;;;;;;;26.60;4.60;;;10.30;98.10;;;;;;5025656;28;20458;-83
2021/11/18 10:42:28;;;;;;;21.52;4.28;;;10.30;98.10;;;;;;5018929;28;20048;-83
2021/11/18 10:44:56;;;;;;;26.73;4.18;;;10.30;98.00;;;;;;5008981;28;20056;-83
2021/11/18 10:47:33;;;;;;;29.88;4.90;;;10.40;98.00;;;;;;5032071;28;20051;-83
2021/11/18 10:50:42;;;;;;;27.30;4.70;;;10.40;98.00;;;;;;5020778;28;20103;-82
2021/11/18 10:53:26;;;;;;;23.17;4.10;;;10.50;97.70;;;;;;5018636;28;20042;-83
2021/11/18 10:56:05;;;;;;;;;;;10.50;97.80;;;;;;5008549;28;20137;-83
2021/11/18 10:58:41;;;;;;;27.08;4.50;;;10.50;97.80;;;;;;5015674;28;19924;-83
2021/11/18 11:01:29;;;;;;;30.55;4.70;;;10.50;98.00;;;;;;5016664;28;20068;-83
2021/11/18 11:04:01;;;;;;;23.00;4.40;;;10.50;97.90;;;;;;5013371;28;20061;-85
2021/11/18 11:06:32;;;;;;;25.35;4.45;;;10.60;97.80;;;;;;5014100;28;20052;-83
2021/11/18 11:09:17;;;;;;;27.90;4.75;;;10.60;97.70;;;;;;5011616;28;20033;-84
2021/11/18 11:11:51;;;;;;;21.88;4.03;;;10.60;97.60;;;;;;5012777;28;20060;-84
2021/11/18 11:14:49;;;;;;;23.27;4.50;;;10.70;97.60;;;;;;5013226;28;20049;-84
2021/11/18 11:17:58;;;;;;;26.75;4.57;;;10.80;97.50;;;;;;5010002;28;20456;-84
2021/11/18 11:20:40;;;;;;;23.55;4.50;;;10.80;97.50;;;;;;5014548;28;20041;-84
2021/11/18 11:23:28;;;;;;;23.35;4.32;;;10.90;97.50;;;;;;5019225;28;20033;-84
2021/11/18 11:26:37;;;;;;;25.83;4.25;;;10.90;97.30;;;;;;5016999;28;20087;-84
2021/11/18 11:29:27;;;;;;;22.10;4.13;;;11.00;97.20;;;;;;4978689;28;20056;-84
2021/11/18 11:32:39;;;;;;;18.10;4.22;;;11.00;97.30;;;;;;5008371;28;20495;-85
2021/11/18 11:35:31;;;;;;;23.65;4.55;;;11.00;97.20;;;;;;4930872;29;20047;-85
2021/11/18 11:38:33;;;;;;;26.20;4.40;;;11.00;97.20;;;;;;5011791;28;20527;-86
2021/11/18 11:41:27;;;;;;;27.13;5.30;;;11.10;97.10;;;;;;5020784;28;20306;-83
2021/11/18 11:44:02;;;;;;;27.52;4.63;;;11.10;97.10;;;;;;5014195;28;20049;-84
2021/11/18 11:46:52;;;;;;;28.85;4.70;;;11.10;97.10;;;;;;5027136;28;20493;-83
2021/11/18 11:49:31;;;;;;;23.90;4.68;;;11.10;96.90;;;;;;5030683;28;20137;-83
2021/11/18 11:52:26;;;;;;;25.92;4.55;;;11.10;97.10;;;;;;5000636;28;20037;-83
2021/11/18 11:55:15;;;;;;;29.17;4.85;;;11.10;97.00;;;;;;5010763;28;20052;-83
2021/11/18 11:57:54;;;;;;;27.70;4.85;;;11.10;97.10;;;;;;5018359;28;20053;-83
2021/11/18 12:00:33;;;;;;;21.85;4.25;;;11.20;97.10;;;;;;5027194;28;20049;-85
2021/11/18 12:03:32;;;;;;;24.83;4.72;;;11.20;97.10;;;;;;5014451;28;20129;-85
2021/11/18 12:06:08;;;;;;;25.45;4.80;;;11.20;97.00;;;;;;5019446;28;20084;-84
2021/11/18 12:08:51;;;;;;;32.42;4.75;;;11.30;97.20;;;;;;5031701;28;20501;-86
2021/11/18 12:11:38;;;;;;;24.70;4.10;;;11.20;97.00;;;;;;5019157;28;20068;-83
2021/11/18 12:14:28;;;;;;;30.98;4.70;;;11.30;97.10;;;;;;5010261;28;20033;-84
2021/11/18 12:17:09;;;;;;;25.63;4.53;;;11.30;97.10;;;;;;5021963;28;20061;-84
2021/11/18 12:19:39;;;;;;;24.73;4.68;;;11.30;97.10;;;;;;5015866;28;20079;-83
2021/11/18 12:22:27;;;;;;;26.20;4.95;;;11.30;97.20;;;;;;5017629;28;20044;-83
2021/11/18 12:25:20;;;;;;;26.17;4.65;;;11.30;97.00;;;;;;5013874;28;20107;-83
2021/11/18 12:28:18;;;;;;;24.90;5.18;;;11.30;96.90;;;;;;5008730;28;20041;-83
2021/11/18 12:30:47;;;;;;;28.05;5.07;;;11.40;97.10;;;;;;5011726;28;20052;-83
2021/11/18 12:33:18;;;;;;;24.10;4.65;;;11.40;97.10;;;;;;5012533;28;20037;-84
2021/11/18 12:36:10;;;;;;;27.10;4.55;;;11.40;97.10;;;;;;5031701;28;20045;-84
2021/11/18 12:38:58;;;;;;;30.63;5.32;;;11.30;97.00;;;;;;5016910;28;20132;-85
2021/11/18 12:41:39;;;;;;;22.67;4.35;;;11.40;97.20;;;;;;5020605;28;20480;-84
2021/11/18 12:44:47;;;;;;;23.50;4.68;;;11.40;97.00;;;;;;5010967;28;20038;-84
2021/11/18 12:47:14;;;;;;;23.15;4.50;;;11.40;97.00;;;;;;5011379;28;20062;-84
2021/11/18 12:49:52;;;;;;;25.50;4.75;;;11.40;97.20;;;;;;5019153;28;20102;-84
2021/11/18 12:52:41;;;;;;;23.67;4.47;;;11.40;97.10;;;;;;5022356;28;20132;-83
2021/11/18 12:55:16;;;;;;;34.08;5.30;;;11.50;97.10;;;;;;5016809;28;20493;-84
2021/11/18 12:57:48;;;;;;;32.20;5.60;;;11.50;97.20;;;;;;5015089;28;20049;-85
2021/11/18 13:00:14;;;;;;;27.05;4.65;;;11.50;97.10;;;;;;5021603;28;20044;-86
2021/11/18 13:02:42;;;;;;;23.95;4.28;;;11.50;97.10;;;;;;5029652;28;20044;-85
2021/11/18 13:05:13;;;;;;;21.67;4.40;;;11.50;97.10;;;;;;5035460;28;20511;-85
2021/11/18 13:07:53;;;;;;;27.88;4.50;;;11.50;97.00;;;;;;5023619;28;20052;-85